sensor_id;sensor_type;location;lat;lon;timestamp;P1;durP1;ratioP1;P2;durP2;ratioP2
75062;SDS011;63981;51.052;13.754;2023-07-02T00:00:28;2.97;;;1.27;;
75062;SDS011;63981;51.052;13.754;2023-07-02T00:02:54;2.42;;;1.10;;
75062;SDS011;63981;51.052;13.754;2023-07-02T00:05:20;2.00;;;1.08;;
75062;SDS011;63981;51.052;13.754;2023-07-02T00:07:46;3.05;;;1.40;;
75062;SDS011;63981;51.052;13.754;2023-07-02T00:10:12;2.05;;;1.35;;
75062;SDS011;63981;51.052;13.754;2023-07-02T00:12:37;1.70;;;1.10;;
75062;SDS011;63981;51.052;13.754;2023-07-02T00:15:03;2.05;;;1.10;;
75062;SDS011;63981;51.052;13.754;2023-07-02T00:17:30;2.30;;;1.20;;
75062;SDS011;63981;51.052;13.754;2023-07-02T00:19:56;2.25;;;1.10;;
75062;SDS011;63981;51.052;13.754;2023-07-02T00:22:21;3.53;;;0.90;;
75062;SDS011;63981;51.052;13.754;2023-07-02T00:24:47;1.42;;;1.02;;
75062;SDS011;63981;51.052;13.754;2023-07-02T00:27:13;1.38;;;1.10;;
75062;SDS011;63981;51.052;13.754;2023-07-02T00:29:39;1.67;;;0.85;;
75062;SDS011;63981;51.052;13.754;2023-07-02T00:32:05;1.52;;;0.85;;
75062;SDS011;63981;51.052;13.754;2023-07-02T00:34:31;1.33;;;0.80;;
75062;SDS011;63981;51.052;13.754;2023-07-02T00:36:57;1.73;;;1.20;;
75062;SDS011;63981;51.052;13.754;2023-07-02T00:39:23;2.60;;;1.15;;
75062;SDS011;63981;51.052;13.754;2023-07-02T00:41:48;0.90;;;0.73;;
75062;SDS011;63981;51.052;13.754;2023-07-02T00:44:15;2.60;;;0.88;;
75062;SDS011;63981;51.052;13.754;2023-07-02T00:46:41;2.08;;;1.05;;
75062;SDS011;63981;51.052;13.754;2023-07-02T00:49:07;1.40;;;0.95;;
75062;SDS011;63981;51.052;13.754;2023-07-02T00:51:33;1.48;;;0.70;;
75062;SDS011;63981;51.052;13.754;2023-07-02T00:54:00;1.20;;;0.77;;
75062;SDS011;63981;51.052;13.754;2023-07-02T00:56:26;1.88;;;0.80;;
75062;SDS011;63981;51.052;13.754;2023-07-02T00:58:53;1.75;;;0.93;;
75062;SDS011;63981;51.052;13.754;2023-07-02T01:01:24;1.00;;;0.82;;
75062;SDS011;63981;51.052;13.754;2023-07-02T01:04:04;1.13;;;0.80;;
75062;SDS011;63981;51.052;13.754;2023-07-02T01:06:33;1.65;;;0.80;;
75062;SDS011;63981;51.052;13.754;2023-07-02T01:09:02;2.92;;;0.80;;
75062;SDS011;63981;51.052;13.754;2023-07-02T01:11:39;1.38;;;0.98;;
75062;SDS011;63981;51.052;13.754;2023-07-02T01:14:12;1.17;;;0.77;;
75062;SDS011;63981;51.052;13.754;2023-07-02T01:16:42;1.95;;;0.85;;
75062;SDS011;63981;51.052;13.754;2023-07-02T01:19:13;1.42;;;1.05;;
75062;SDS011;63981;51.052;13.754;2023-07-02T01:21:47;1.10;;;0.70;;
75062;SDS011;63981;51.052;13.754;2023-07-02T01:24:16;0.80;;;0.70;;
75062;SDS011;63981;51.052;13.754;2023-07-02T01:26:43;1.38;;;1.00;;
75062;SDS011;63981;51.052;13.754;2023-07-02T01:29:14;1.50;;;0.80;;
75062;SDS011;63981;51.052;13.754;2023-07-02T01:31:44;2.10;;;0.90;;
75062;SDS011;63981;51.052;13.754;2023-07-02T01:34:11;2.67;;;0.98;;
75062;SDS011;63981;51.052;13.754;2023-07-02T01:36:38;1.20;;;0.68;;
75062;SDS011;63981;51.052;13.754;2023-07-02T01:39:04;1.75;;;1.00;;
75062;SDS011;63981;51.052;13.754;2023-07-02T01:41:33;1.42;;;0.82;;
75062;SDS011;63981;51.052;13.754;2023-07-02T01:44:09;0.90;;;0.80;;
75062;SDS011;63981;51.052;13.754;2023-07-02T01:46:36;1.58;;;0.80;;
75062;SDS011;63981;51.052;13.754;2023-07-02T01:49:02;1.23;;;0.75;;
75062;SDS011;63981;51.052;13.754;2023-07-02T01:51:29;2.25;;;0.75;;
75062;SDS011;63981;51.052;13.754;2023-07-02T01:53:55;1.60;;;0.82;;
75062;SDS011;63981;51.052;13.754;2023-07-02T01:56:20;3.13;;;1.00;;
75062;SDS011;63981;51.052;13.754;2023-07-02T01:58:46;0.95;;;0.70;;
75062;SDS011;63981;51.052;13.754;2023-07-02T02:01:12;1.10;;;0.80;;
75062;SDS011;63981;51.052;13.754;2023-07-02T02:03:38;1.90;;;1.10;;
75062;SDS011;63981;51.052;13.754;2023-07-02T02:06:04;1.30;;;0.82;;
75062;SDS011;63981;51.052;13.754;2023-07-02T02:08:29;2.00;;;1.10;;
75062;SDS011;63981;51.052;13.754;2023-07-02T02:10:55;1.08;;;0.77;;
75062;SDS011;63981;51.052;13.754;2023-07-02T02:13:21;1.10;;;0.82;;
75062;SDS011;63981;51.052;13.754;2023-07-02T02:15:48;1.95;;;0.70;;
75062;SDS011;63981;51.052;13.754;2023-07-02T02:18:14;1.25;;;0.70;;
75062;SDS011;63981;51.052;13.754;2023-07-02T02:20:39;1.40;;;0.80;;
75062;SDS011;63981;51.052;13.754;2023-07-02T02:23:05;0.95;;;0.80;;
75062;SDS011;63981;51.052;13.754;2023-07-02T02:25:31;1.45;;;1.02;;
75062;SDS011;63981;51.052;13.754;2023-07-02T02:27:57;1.30;;;0.80;;
75062;SDS011;63981;51.052;13.754;2023-07-02T02:30:24;1.00;;;0.82;;
75062;SDS011;63981;51.052;13.754;2023-07-02T02:32:50;1.40;;;0.88;;
75062;SDS011;63981;51.052;13.754;2023-07-02T02:35:15;1.63;;;0.90;;
75062;SDS011;63981;51.052;13.754;2023-07-02T02:37:41;1.48;;;0.90;;
75062;SDS011;63981;51.052;13.754;2023-07-02T02:40:08;1.58;;;0.93;;
75062;SDS011;63981;51.052;13.754;2023-07-02T02:42:36;1.08;;;0.80;;
75062;SDS011;63981;51.052;13.754;2023-07-02T02:45:03;1.50;;;1.10;;
75062;SDS011;63981;51.052;13.754;2023-07-02T02:47:29;1.23;;;0.80;;
75062;SDS011;63981;51.052;13.754;2023-07-02T02:49:55;1.45;;;0.90;;
75062;SDS011;63981;51.052;13.754;2023-07-02T02:52:21;1.25;;;1.00;;
75062;SDS011;63981;51.052;13.754;2023-07-02T02:54:46;5.22;;;1.00;;
75062;SDS011;63981;51.052;13.754;2023-07-02T02:57:13;1.48;;;0.90;;
75062;SDS011;63981;51.052;13.754;2023-07-02T02:59:39;1.05;;;0.65;;
75062;SDS011;63981;51.052;13.754;2023-07-02T03:02:05;1.45;;;0.90;;
75062;SDS011;63981;51.052;13.754;2023-07-02T03:04:31;1.95;;;0.77;;
75062;SDS011;63981;51.052;13.754;2023-07-02T03:06:57;1.00;;;0.88;;
75062;SDS011;63981;51.052;13.754;2023-07-02T03:09:22;1.30;;;0.80;;
75062;SDS011;63981;51.052;13.754;2023-07-02T03:11:48;1.60;;;1.27;;
75062;SDS011;63981;51.052;13.754;2023-07-02T03:14:14;1.85;;;0.90;;
75062;SDS011;63981;51.052;13.754;2023-07-02T03:16:41;1.85;;;1.05;;
75062;SDS011;63981;51.052;13.754;2023-07-02T03:19:10;1.08;;;0.90;;
75062;SDS011;63981;51.052;13.754;2023-07-02T03:21:36;1.10;;;0.80;;
75062;SDS011;63981;51.052;13.754;2023-07-02T03:24:02;1.70;;;1.02;;
75062;SDS011;63981;51.052;13.754;2023-07-02T03:26:27;2.78;;;0.95;;
75062;SDS011;63981;51.052;13.754;2023-07-02T03:28:53;2.22;;;1.10;;
75062;SDS011;63981;51.052;13.754;2023-07-02T03:31:19;1.38;;;0.90;;
75062;SDS011;63981;51.052;13.754;2023-07-02T03:33:45;1.35;;;0.82;;
75062;SDS011;63981;51.052;13.754;2023-07-02T03:36:11;1.95;;;0.90;;
75062;SDS011;63981;51.052;13.754;2023-07-02T03:38:36;2.42;;;1.20;;
75062;SDS011;63981;51.052;13.754;2023-07-02T03:41:02;2.42;;;0.90;;
75062;SDS011;63981;51.052;13.754;2023-07-02T03:43:28;1.83;;;0.93;;
75062;SDS011;63981;51.052;13.754;2023-07-02T03:45:54;1.55;;;0.85;;
75062;SDS011;63981;51.052;13.754;2023-07-02T03:48:19;1.15;;;0.85;;
75062;SDS011;63981;51.052;13.754;2023-07-02T03:50:45;0.95;;;0.85;;
75062;SDS011;63981;51.052;13.754;2023-07-02T03:53:12;2.70;;;1.10;;
75062;SDS011;63981;51.052;13.754;2023-07-02T03:55:38;1.45;;;0.88;;
75062;SDS011;63981;51.052;13.754;2023-07-02T03:58:04;4.22;;;1.30;;
75062;SDS011;63981;51.052;13.754;2023-07-02T04:00:30;0.90;;;0.70;;
75062;SDS011;63981;51.052;13.754;2023-07-02T04:02:56;1.25;;;0.77;;
75062;SDS011;63981;51.052;13.754;2023-07-02T04:05:21;1.42;;;1.00;;
75062;SDS011;63981;51.052;13.754;2023-07-02T04:07:47;1.70;;;1.10;;
75062;SDS011;63981;51.052;13.754;2023-07-02T04:10:13;2.00;;;1.20;;
75062;SDS011;63981;51.052;13.754;2023-07-02T04:12:39;1.30;;;1.20;;
75062;SDS011;63981;51.052;13.754;2023-07-02T04:15:05;2.92;;;1.23;;
75062;SDS011;63981;51.052;13.754;2023-07-02T04:17:31;2.75;;;0.95;;
75062;SDS011;63981;51.052;13.754;2023-07-02T04:19:59;1.45;;;1.17;;
75062;SDS011;63981;51.052;13.754;2023-07-02T04:22:26;1.30;;;1.08;;
75062;SDS011;63981;51.052;13.754;2023-07-02T04:24:52;1.48;;;1.10;;
75062;SDS011;63981;51.052;13.754;2023-07-02T04:27:18;1.95;;;1.17;;
75062;SDS011;63981;51.052;13.754;2023-07-02T04:29:44;2.17;;;1.40;;
75062;SDS011;63981;51.052;13.754;2023-07-02T04:32:10;1.83;;;1.40;;
75062;SDS011;63981;51.052;13.754;2023-07-02T04:34:36;2.13;;;1.45;;
75062;SDS011;63981;51.052;13.754;2023-07-02T04:37:03;2.42;;;1.20;;
75062;SDS011;63981;51.052;13.754;2023-07-02T04:39:30;2.25;;;1.50;;
75062;SDS011;63981;51.052;13.754;2023-07-02T04:41:56;2.20;;;1.15;;
75062;SDS011;63981;51.052;13.754;2023-07-02T04:44:22;2.00;;;1.40;;
75062;SDS011;63981;51.052;13.754;2023-07-02T04:47:01;1.30;;;1.20;;
75062;SDS011;63981;51.052;13.754;2023-07-02T04:49:27;1.75;;;1.25;;
75062;SDS011;63981;51.052;13.754;2023-07-02T04:51:53;2.08;;;1.20;;
75062;SDS011;63981;51.052;13.754;2023-07-02T04:54:20;1.30;;;1.20;;
75062;SDS011;63981;51.052;13.754;2023-07-02T04:56:46;2.47;;;1.27;;
75062;SDS011;63981;51.052;13.754;2023-07-02T04:59:13;3.10;;;1.40;;
75062;SDS011;63981;51.052;13.754;2023-07-02T05:01:40;1.98;;;1.25;;
75062;SDS011;63981;51.052;13.754;2023-07-02T05:04:06;1.75;;;1.40;;
75062;SDS011;63981;51.052;13.754;2023-07-02T05:06:31;2.30;;;1.35;;
75062;SDS011;63981;51.052;13.754;2023-07-02T05:08:57;2.55;;;1.48;;
75062;SDS011;63981;51.052;13.754;2023-07-02T05:11:23;1.80;;;1.30;;
75062;SDS011;63981;51.052;13.754;2023-07-02T05:13:49;2.10;;;1.20;;
75062;SDS011;63981;51.052;13.754;2023-07-02T05:16:14;2.80;;;1.60;;
75062;SDS011;63981;51.052;13.754;2023-07-02T05:18:40;2.08;;;1.88;;
75062;SDS011;63981;51.052;13.754;2023-07-02T05:21:06;3.33;;;1.70;;
75062;SDS011;63981;51.052;13.754;2023-07-02T05:23:32;2.53;;;1.88;;
75062;SDS011;63981;51.052;13.754;2023-07-02T05:25:58;3.63;;;1.48;;
75062;SDS011;63981;51.052;13.754;2023-07-02T05:28:24;1.90;;;1.48;;
75062;SDS011;63981;51.052;13.754;2023-07-02T05:30:50;1.90;;;1.67;;
75062;SDS011;63981;51.052;13.754;2023-07-02T05:33:16;2.67;;;1.33;;
75062;SDS011;63981;51.052;13.754;2023-07-02T05:35:42;1.80;;;1.45;;
75062;SDS011;63981;51.052;13.754;2023-07-02T05:38:08;1.45;;;1.10;;
75062;SDS011;63981;51.052;13.754;2023-07-02T05:40:33;2.03;;;1.38;;
75062;SDS011;63981;51.052;13.754;2023-07-02T05:42:59;2.45;;;1.20;;
75062;SDS011;63981;51.052;13.754;2023-07-02T05:45:25;2.17;;;1.45;;
75062;SDS011;63981;51.052;13.754;2023-07-02T05:47:52;2.30;;;1.25;;
75062;SDS011;63981;51.052;13.754;2023-07-02T05:50:18;1.98;;;1.40;;
75062;SDS011;63981;51.052;13.754;2023-07-02T05:52:44;2.45;;;1.30;;
75062;SDS011;63981;51.052;13.754;2023-07-02T05:55:10;3.20;;;1.42;;
75062;SDS011;63981;51.052;13.754;2023-07-02T05:57:37;2.60;;;1.60;;
75062;SDS011;63981;51.052;13.754;2023-07-02T06:00:06;2.70;;;1.17;;
75062;SDS011;63981;51.052;13.754;2023-07-02T06:02:37;1.40;;;1.27;;
75062;SDS011;63981;51.052;13.754;2023-07-02T06:05:03;3.58;;;1.20;;
75062;SDS011;63981;51.052;13.754;2023-07-02T06:07:29;2.00;;;1.40;;
75062;SDS011;63981;51.052;13.754;2023-07-02T06:09:55;2.30;;;1.30;;
75062;SDS011;63981;51.052;13.754;2023-07-02T06:12:21;2.63;;;1.65;;
75062;SDS011;63981;51.052;13.754;2023-07-02T06:14:47;3.13;;;1.55;;
75062;SDS011;63981;51.052;13.754;2023-07-02T06:17:13;2.05;;;1.20;;
75062;SDS011;63981;51.052;13.754;2023-07-02T06:19:40;1.30;;;1.20;;
75062;SDS011;63981;51.052;13.754;2023-07-02T06:22:06;2.95;;;1.45;;
75062;SDS011;63981;51.052;13.754;2023-07-02T06:24:32;2.67;;;1.40;;
75062;SDS011;63981;51.052;13.754;2023-07-02T06:26:59;1.95;;;1.48;;
75062;SDS011;63981;51.052;13.754;2023-07-02T06:29:25;2.38;;;1.60;;
75062;SDS011;63981;51.052;13.754;2023-07-02T06:31:51;1.50;;;1.40;;
75062;SDS011;63981;51.052;13.754;2023-07-02T06:34:17;1.70;;;1.48;;
75062;SDS011;63981;51.052;13.754;2023-07-02T06:36:43;1.52;;;1.42;;
75062;SDS011;63981;51.052;13.754;2023-07-02T06:39:27;1.95;;;1.45;;
75062;SDS011;63981;51.052;13.754;2023-07-02T06:42:11;1.85;;;1.38;;
75062;SDS011;63981;51.052;13.754;2023-07-02T06:44:38;2.88;;;1.70;;
75062;SDS011;63981;51.052;13.754;2023-07-02T06:47:08;1.75;;;1.65;;
75062;SDS011;63981;51.052;13.754;2023-07-02T06:49:34;3.13;;;1.60;;
75062;SDS011;63981;51.052;13.754;2023-07-02T06:52:01;3.58;;;1.70;;
75062;SDS011;63981;51.052;13.754;2023-07-02T06:54:27;2.15;;;1.70;;
75062;SDS011;63981;51.052;13.754;2023-07-02T06:56:53;2.13;;;1.60;;
75062;SDS011;63981;51.052;13.754;2023-07-02T06:59:20;2.13;;;1.33;;
75062;SDS011;63981;51.052;13.754;2023-07-02T07:02:07;1.67;;;1.38;;
75062;SDS011;63981;51.052;13.754;2023-07-02T07:04:52;1.98;;;1.50;;
75062;SDS011;63981;51.052;13.754;2023-07-02T07:07:18;2.00;;;1.58;;
75062;SDS011;63981;51.052;13.754;2023-07-02T07:09:44;2.13;;;1.40;;
75062;SDS011;63981;51.052;13.754;2023-07-02T07:12:10;2.90;;;1.42;;
75062;SDS011;63981;51.052;13.754;2023-07-02T07:14:35;1.77;;;1.25;;
75062;SDS011;63981;51.052;13.754;2023-07-02T07:17:01;2.38;;;1.30;;
75062;SDS011;63981;51.052;13.754;2023-07-02T07:19:28;2.55;;;1.42;;
75062;SDS011;63981;51.052;13.754;2023-07-02T07:21:54;1.42;;;1.30;;
75062;SDS011;63981;51.052;13.754;2023-07-02T07:24:20;1.90;;;1.70;;
75062;SDS011;63981;51.052;13.754;2023-07-02T07:26:45;2.63;;;1.80;;
75062;SDS011;63981;51.052;13.754;2023-07-02T07:29:11;2.30;;;1.67;;
75062;SDS011;63981;51.052;13.754;2023-07-02T07:31:37;2.95;;;1.63;;
75062;SDS011;63981;51.052;13.754;2023-07-02T07:34:03;2.10;;;1.90;;
75062;SDS011;63981;51.052;13.754;2023-07-02T07:36:29;1.60;;;1.50;;
75062;SDS011;63981;51.052;13.754;2023-07-02T07:38:54;4.30;;;2.00;;
75062;SDS011;63981;51.052;13.754;2023-07-02T07:41:20;1.63;;;1.52;;
75062;SDS011;63981;51.052;13.754;2023-07-02T07:43:46;2.10;;;1.88;;
75062;SDS011;63981;51.052;13.754;2023-07-02T07:46:12;2.40;;;2.00;;
75062;SDS011;63981;51.052;13.754;2023-07-02T07:48:38;3.03;;;1.83;;
75062;SDS011;63981;51.052;13.754;2023-07-02T07:51:03;1.98;;;1.45;;
75062;SDS011;63981;51.052;13.754;2023-07-02T07:53:29;1.92;;;1.73;;
75062;SDS011;63981;51.052;13.754;2023-07-02T07:55:55;1.85;;;1.70;;
75062;SDS011;63981;51.052;13.754;2023-07-02T07:58:21;1.98;;;1.77;;
75062;SDS011;63981;51.052;13.754;2023-07-02T08:00:47;1.90;;;1.50;;
75062;SDS011;63981;51.052;13.754;2023-07-02T08:03:12;2.00;;;1.40;;
75062;SDS011;63981;51.052;13.754;2023-07-02T08:05:38;1.65;;;1.52;;
75062;SDS011;63981;51.052;13.754;2023-07-02T08:08:04;2.15;;;1.77;;
75062;SDS011;63981;51.052;13.754;2023-07-02T08:10:30;1.48;;;1.30;;
75062;SDS011;63981;51.052;13.754;2023-07-02T08:12:56;2.30;;;1.60;;
75062;SDS011;63981;51.052;13.754;2023-07-02T08:15:22;3.95;;;1.50;;
75062;SDS011;63981;51.052;13.754;2023-07-02T08:17:48;3.03;;;1.63;;
75062;SDS011;63981;51.052;13.754;2023-07-02T08:20:14;2.22;;;1.20;;
75062;SDS011;63981;51.052;13.754;2023-07-02T08:22:42;3.50;;;1.20;;
75062;SDS011;63981;51.052;13.754;2023-07-02T08:25:08;2.15;;;1.52;;
75062;SDS011;63981;51.052;13.754;2023-07-02T08:27:34;1.60;;;1.33;;
75062;SDS011;63981;51.052;13.754;2023-07-02T08:30:00;2.83;;;1.20;;
75062;SDS011;63981;51.052;13.754;2023-07-02T08:32:26;2.92;;;1.67;;
75062;SDS011;63981;51.052;13.754;2023-07-02T08:34:52;1.38;;;1.20;;
75062;SDS011;63981;51.052;13.754;2023-07-02T08:37:19;1.83;;;1.38;;
75062;SDS011;63981;51.052;13.754;2023-07-02T08:39:48;1.35;;;1.23;;
75062;SDS011;63981;51.052;13.754;2023-07-02T08:42:14;1.83;;;1.30;;
75062;SDS011;63981;51.052;13.754;2023-07-02T08:44:40;3.63;;;1.52;;
75062;SDS011;63981;51.052;13.754;2023-07-02T08:47:07;1.58;;;1.30;;
75062;SDS011;63981;51.052;13.754;2023-07-02T08:49:34;2.70;;;1.38;;
75062;SDS011;63981;51.052;13.754;2023-07-02T08:52:00;3.58;;;1.67;;
75062;SDS011;63981;51.052;13.754;2023-07-02T08:54:25;1.55;;;1.27;;
75062;SDS011;63981;51.052;13.754;2023-07-02T08:56:51;1.38;;;1.10;;
75062;SDS011;63981;51.052;13.754;2023-07-02T08:59:17;2.65;;;1.50;;
75062;SDS011;63981;51.052;13.754;2023-07-02T09:01:46;2.05;;;1.48;;
75062;SDS011;63981;51.052;13.754;2023-07-02T09:04:20;1.98;;;1.38;;
75062;SDS011;63981;51.052;13.754;2023-07-02T09:06:47;1.85;;;0.93;;
75062;SDS011;63981;51.052;13.754;2023-07-02T09:09:13;2.60;;;1.40;;
75062;SDS011;63981;51.052;13.754;2023-07-02T09:11:46;1.55;;;1.00;;
75062;SDS011;63981;51.052;13.754;2023-07-02T09:14:23;1.60;;;1.10;;
75062;SDS011;63981;51.052;13.754;2023-07-02T09:17:08;2.47;;;1.10;;
75062;SDS011;63981;51.052;13.754;2023-07-02T09:19:35;2.72;;;1.00;;
75062;SDS011;63981;51.052;13.754;2023-07-02T09:22:02;2.78;;;0.90;;
75062;SDS011;63981;51.052;13.754;2023-07-02T09:24:29;1.65;;;1.27;;
75062;SDS011;63981;51.052;13.754;2023-07-02T09:26:57;1.55;;;1.15;;
75062;SDS011;63981;51.052;13.754;2023-07-02T09:29:25;1.23;;;0.90;;
75062;SDS011;63981;51.052;13.754;2023-07-02T09:31:56;1.98;;;1.00;;
75062;SDS011;63981;51.052;13.754;2023-07-02T09:34:32;2.53;;;1.20;;
75062;SDS011;63981;51.052;13.754;2023-07-02T09:36:59;1.40;;;1.00;;
75062;SDS011;63981;51.052;13.754;2023-07-02T09:39:27;4.18;;;1.05;;
75062;SDS011;63981;51.052;13.754;2023-07-02T09:41:58;1.88;;;1.23;;
75062;SDS011;63981;51.052;13.754;2023-07-02T09:44:34;1.77;;;0.85;;
75062;SDS011;63981;51.052;13.754;2023-07-02T09:47:05;1.10;;;1.00;;
75062;SDS011;63981;51.052;13.754;2023-07-02T09:49:33;1.50;;;1.33;;
75062;SDS011;63981;51.052;13.754;2023-07-02T09:52:01;1.50;;;1.05;;
75062;SDS011;63981;51.052;13.754;2023-07-02T09:54:29;1.73;;;1.13;;
75062;SDS011;63981;51.052;13.754;2023-07-02T09:56:56;1.95;;;1.00;;
75062;SDS011;63981;51.052;13.754;2023-07-02T09:59:24;2.63;;;1.33;;
75062;SDS011;63981;51.052;13.754;2023-07-02T10:01:50;2.00;;;1.20;;
75062;SDS011;63981;51.052;13.754;2023-07-02T10:04:17;2.15;;;1.40;;
75062;SDS011;63981;51.052;13.754;2023-07-02T10:06:45;2.47;;;1.15;;
75062;SDS011;63981;51.052;13.754;2023-07-02T10:09:12;1.40;;;1.10;;
75062;SDS011;63981;51.052;13.754;2023-07-02T10:11:38;1.08;;;0.82;;
75062;SDS011;63981;51.052;13.754;2023-07-02T10:14:04;1.95;;;0.93;;
75062;SDS011;63981;51.052;13.754;2023-07-02T10:16:30;1.98;;;1.30;;
75062;SDS011;63981;51.052;13.754;2023-07-02T10:19:13;2.20;;;1.00;;
75062;SDS011;63981;51.052;13.754;2023-07-02T10:21:39;2.08;;;1.00;;
75062;SDS011;63981;51.052;13.754;2023-07-02T10:24:11;3.67;;;1.17;;
75062;SDS011;63981;51.052;13.754;2023-07-02T10:26:56;1.63;;;0.90;;
75062;SDS011;63981;51.052;13.754;2023-07-02T10:29:24;1.58;;;1.20;;
75062;SDS011;63981;51.052;13.754;2023-07-02T10:31:52;1.75;;;1.05;;
75062;SDS011;63981;51.052;13.754;2023-07-02T10:34:32;2.30;;;0.98;;
75062;SDS011;63981;51.052;13.754;2023-07-02T10:37:02;2.15;;;1.25;;
75062;SDS011;63981;51.052;13.754;2023-07-02T10:39:29;3.30;;;1.20;;
75062;SDS011;63981;51.052;13.754;2023-07-02T10:42:06;1.73;;;0.90;;
75062;SDS011;63981;51.052;13.754;2023-07-02T10:44:33;1.55;;;1.10;;
75062;SDS011;63981;51.052;13.754;2023-07-02T10:47:00;1.63;;;0.98;;
75062;SDS011;63981;51.052;13.754;2023-07-02T10:49:30;2.40;;;1.25;;
75062;SDS011;63981;51.052;13.754;2023-07-02T10:56:49;2.25;;;1.10;;
75062;SDS011;63981;51.052;13.754;2023-07-02T10:59:24;1.15;;;1.00;;
75062;SDS011;63981;51.052;13.754;2023-07-02T12:54:42;2.28;;;1.33;;
75062;SDS011;63981;51.052;13.754;2023-07-02T12:57:08;1.93;;;1.40;;
75062;SDS011;63981;51.052;13.754;2023-07-02T13:19:00;3.13;;;1.90;;
75062;SDS011;63981;51.052;13.754;2023-07-02T13:23:53;2.70;;;1.85;;
75062;SDS011;63981;51.052;13.754;2023-07-02T13:26:19;4.45;;;2.08;;
75062;SDS011;63981;51.052;13.754;2023-07-02T13:48:14;2.97;;;2.03;;
75062;SDS011;63981;51.052;13.754;2023-07-02T13:53:05;4.18;;;2.10;;
75062;SDS011;63981;51.052;13.754;2023-07-02T13:55:31;4.80;;;1.95;;
75062;SDS011;63981;51.052;13.754;2023-07-02T13:57:57;3.35;;;1.98;;
75062;SDS011;63981;51.052;13.754;2023-07-02T14:00:25;4.07;;;2.00;;
75062;SDS011;63981;51.052;13.754;2023-07-02T14:02:52;2.70;;;2.00;;
75062;SDS011;63981;51.052;13.754;2023-07-02T14:05:18;4.72;;;1.98;;
75062;SDS011;63981;51.052;13.754;2023-07-02T14:07:44;3.58;;;2.00;;
75062;SDS011;63981;51.052;13.754;2023-07-02T14:10:10;4.30;;;2.10;;
75062;SDS011;63981;51.052;13.754;2023-07-02T14:12:38;5.13;;;1.92;;
75062;SDS011;63981;51.052;13.754;2023-07-02T14:15:04;5.40;;;2.22;;
75062;SDS011;63981;51.052;13.754;2023-07-02T14:17:31;3.70;;;2.20;;
75062;SDS011;63981;51.052;13.754;2023-07-02T14:19:57;4.20;;;2.38;;
75062;SDS011;63981;51.052;13.754;2023-07-02T14:22:23;3.85;;;1.85;;
75062;SDS011;63981;51.052;13.754;2023-07-02T14:24:49;4.47;;;2.05;;
75062;SDS011;63981;51.052;13.754;2023-07-02T14:27:15;3.28;;;2.00;;
75062;SDS011;63981;51.052;13.754;2023-07-02T14:29:41;3.83;;;2.05;;
75062;SDS011;63981;51.052;13.754;2023-07-02T14:32:07;4.00;;;1.90;;
75062;SDS011;63981;51.052;13.754;2023-07-02T14:34:33;3.42;;;1.98;;
75062;SDS011;63981;51.052;13.754;2023-07-02T14:36:59;4.60;;;2.03;;
75062;SDS011;63981;51.052;13.754;2023-07-02T14:39:25;3.28;;;2.22;;
75062;SDS011;63981;51.052;13.754;2023-07-02T14:41:51;3.33;;;2.20;;
75062;SDS011;63981;51.052;13.754;2023-07-02T14:44:16;5.13;;;2.45;;
75062;SDS011;63981;51.052;13.754;2023-07-02T14:46:42;4.15;;;2.38;;
75062;SDS011;63981;51.052;13.754;2023-07-02T14:49:09;3.92;;;2.50;;
75062;SDS011;63981;51.052;13.754;2023-07-02T14:51:35;4.88;;;2.47;;
75062;SDS011;63981;51.052;13.754;2023-07-02T14:54:01;7.63;;;3.10;;
75062;SDS011;63981;51.052;13.754;2023-07-02T14:56:29;3.92;;;2.50;;
75062;SDS011;63981;51.052;13.754;2023-07-02T14:58:55;4.50;;;2.88;;
75062;SDS011;63981;51.052;13.754;2023-07-02T15:01:21;3.72;;;2.78;;
75062;SDS011;63981;51.052;13.754;2023-07-02T15:03:47;4.15;;;2.60;;
75062;SDS011;63981;51.052;13.754;2023-07-02T15:06:14;4.10;;;2.55;;
75062;SDS011;63981;51.052;13.754;2023-07-02T15:08:42;5.40;;;3.28;;
75062;SDS011;63981;51.052;13.754;2023-07-02T15:11:09;5.38;;;2.78;;
75062;SDS011;63981;51.052;13.754;2023-07-02T15:13:35;5.00;;;2.90;;
75062;SDS011;63981;51.052;13.754;2023-07-02T15:16:03;6.22;;;2.65;;
75062;SDS011;63981;51.052;13.754;2023-07-02T15:18:29;4.22;;;2.70;;
75062;SDS011;63981;51.052;13.754;2023-07-02T15:20:55;5.88;;;3.08;;
75062;SDS011;63981;51.052;13.754;2023-07-02T15:23:22;5.68;;;3.13;;
75062;SDS011;63981;51.052;13.754;2023-07-02T15:25:56;4.90;;;3.42;;
75062;SDS011;63981;51.052;13.754;2023-07-02T15:28:24;5.80;;;3.53;;
75062;SDS011;63981;51.052;13.754;2023-07-02T15:30:57;5.63;;;3.72;;
75062;SDS011;63981;51.052;13.754;2023-07-02T15:33:25;7.70;;;3.75;;
75062;SDS011;63981;51.052;13.754;2023-07-02T15:35:51;6.72;;;4.05;;
75062;SDS011;63981;51.052;13.754;2023-07-02T15:38:17;6.78;;;3.97;;
75062;SDS011;63981;51.052;13.754;2023-07-02T15:40:45;6.07;;;3.70;;
75062;SDS011;63981;51.052;13.754;2023-07-02T15:43:11;5.40;;;3.70;;
75062;SDS011;63981;51.052;13.754;2023-07-02T15:45:37;5.97;;;3.92;;
75062;SDS011;63981;51.052;13.754;2023-07-02T15:48:03;4.82;;;3.80;;
75062;SDS011;63981;51.052;13.754;2023-07-02T15:50:29;5.57;;;3.63;;
75062;SDS011;63981;51.052;13.754;2023-07-02T15:52:55;5.50;;;4.07;;
75062;SDS011;63981;51.052;13.754;2023-07-02T15:55:21;7.47;;;4.65;;
75062;SDS011;63981;51.052;13.754;2023-07-02T15:57:47;7.35;;;4.47;;
75062;SDS011;63981;51.052;13.754;2023-07-02T16:00:14;8.35;;;4.50;;
75062;SDS011;63981;51.052;13.754;2023-07-02T16:02:41;6.88;;;4.50;;
75062;SDS011;63981;51.052;13.754;2023-07-02T16:05:08;5.60;;;4.13;;
75062;SDS011;63981;51.052;13.754;2023-07-02T16:07:35;10.45;;;4.90;;
75062;SDS011;63981;51.052;13.754;2023-07-02T16:10:02;5.68;;;3.70;;
75062;SDS011;63981;51.052;13.754;2023-07-02T16:12:28;7.75;;;4.40;;
75062;SDS011;63981;51.052;13.754;2023-07-02T16:14:54;7.63;;;4.43;;
75062;SDS011;63981;51.052;13.754;2023-07-02T16:17:21;6.65;;;3.90;;
75062;SDS011;63981;51.052;13.754;2023-07-02T16:19:47;6.82;;;4.68;;
75062;SDS011;63981;51.052;13.754;2023-07-02T16:22:12;8.40;;;5.03;;
75062;SDS011;63981;51.052;13.754;2023-07-02T16:24:38;8.15;;;4.70;;
75062;SDS011;63981;51.052;13.754;2023-07-02T16:27:05;9.57;;;5.30;;
75062;SDS011;63981;51.052;13.754;2023-07-02T16:29:38;8.80;;;5.07;;
75062;SDS011;63981;51.052;13.754;2023-07-02T16:32:04;8.82;;;4.72;;
75062;SDS011;63981;51.052;13.754;2023-07-02T16:34:30;8.25;;;4.90;;
75062;SDS011;63981;51.052;13.754;2023-07-02T16:36:56;7.32;;;5.05;;
75062;SDS011;63981;51.052;13.754;2023-07-02T16:39:22;8.75;;;4.85;;
75062;SDS011;63981;51.052;13.754;2023-07-02T16:41:48;8.82;;;4.68;;
75062;SDS011;63981;51.052;13.754;2023-07-02T16:44:15;7.50;;;5.00;;
75062;SDS011;63981;51.052;13.754;2023-07-02T16:46:46;9.18;;;4.88;;
75062;SDS011;63981;51.052;13.754;2023-07-02T16:51:40;9.32;;;5.70;;
75062;SDS011;63981;51.052;13.754;2023-07-02T16:54:10;7.22;;;5.03;;
75062;SDS011;63981;51.052;13.754;2023-07-02T16:56:45;7.70;;;4.85;;
75062;SDS011;63981;51.052;13.754;2023-07-02T16:59:14;7.18;;;4.53;;
75062;SDS011;63981;51.052;13.754;2023-07-02T17:01:44;7.97;;;5.22;;
75062;SDS011;63981;51.052;13.754;2023-07-02T17:04:11;9.70;;;6.22;;
75062;SDS011;63981;51.052;13.754;2023-07-02T17:06:40;8.95;;;5.85;;
75062;SDS011;63981;51.052;13.754;2023-07-02T17:09:26;12.60;;;6.00;;
75062;SDS011;63981;51.052;13.754;2023-07-02T17:12:00;9.05;;;5.53;;
75062;SDS011;63981;51.052;13.754;2023-07-02T17:14:31;8.02;;;5.18;;
75062;SDS011;63981;51.052;13.754;2023-07-02T17:17:00;10.38;;;5.60;;